Time;durP1;ratioP1;P1;durP2;ratioP2;P2;SDS_P1;SDS_P2;PMS_P1;PMS_P2;Temp;Humidity;BMP_temperature;BMP_pressure;BME280_temperature;BME280_humidity;BME280_pressure;Samples;Min_cycle;Max_cycle;Signal;HPM_P1;HPM_P2
2021/09/01 00:00:24;;;;;;;9.23;4.15;;;17.60;99.90;;;;;;5012192;28;20851;-86
2021/09/01 00:02:50;;;;;;;7.25;3.35;;;17.60;99.90;;;;;;5012191;28;20184;-84
2021/09/01 00:05:15;;;;;;;9.02;3.60;;;17.50;99.90;;;;;;5011944;28;20551;-87
2021/09/01 00:07:42;;;;;;;12.45;3.83;;;17.50;99.90;;;;;;5013426;28;20637;-85
2021/09/01 00:10:08;;;;;;;13.10;3.95;;;17.20;99.90;;;;;;5013575;28;20153;-87
2021/09/01 00:12:35;;;;;;;4.78;3.03;;;17.30;99.90;;;;;;5012031;28;20219;-87
2021/09/01 00:15:01;;;;;;;8.52;2.83;;;17.20;99.90;;;;;;5012899;28;20633;-86
2021/09/01 00:17:27;;;;;;;11.32;3.05;;;17.30;99.90;;;;;;5011068;28;20200;-86
2021/09/01 00:19:52;;;;;;;11.63;3.28;;;17.40;99.90;;;;;;5013039;28;20681;-87
2021/09/01 00:22:18;;;;;;;10.63;3.60;;;17.30;99.90;;;;;;5012042;28;20633;-87
2021/09/01 00:24:43;;;;;;;6.55;2.95;;;17.40;99.90;;;;;;5013291;28;20196;-86
2021/09/01 00:27:09;;;;;;;4.65;3.30;;;17.20;99.90;;;;;;5012945;28;20206;-85
2021/09/01 00:29:36;;;;;;;11.80;2.90;;;17.30;99.90;;;;;;5013817;28;20179;-84
2021/09/01 00:32:03;;;;;;;7.68;3.53;;;17.30;99.90;;;;;;4996417;28;20192;-84
2021/09/01 00:34:29;;;;;;;8.52;3.72;;;17.50;99.90;;;;;;5016042;28;20544;-87
2021/09/01 00:36:55;;;;;;;9.32;3.22;;;17.50;99.90;;;;;;5016604;28;20291;-85
2021/09/01 00:39:20;;;;;;;8.98;3.00;;;17.50;99.90;;;;;;5015479;28;20247;-86
2021/09/01 00:41:46;;;;;;;12.40;3.85;;;17.50;99.90;;;;;;5014904;28;20683;-86
2021/09/01 00:44:27;;;;;;;6.05;3.25;;;17.50;99.90;;;;;;5016126;28;20168;-84
2021/09/01 00:46:58;;;;;;;12.50;2.97;;;17.60;99.90;;;;;;5015761;28;20660;-83
2021/09/01 00:49:26;;;;;;;8.38;3.13;;;17.60;99.90;;;;;;5014658;28;20563;-83
2021/09/01 00:51:52;;;;;;;10.35;3.63;;;17.50;99.90;;;;;;5014641;28;20176;-84
2021/09/01 00:54:22;;;;;;;9.70;3.08;;;17.70;99.90;;;;;;5014339;28;20173;-85
2021/09/01 00:56:52;;;;;;;15.35;3.22;;;17.60;99.90;;;;;;5011975;28;20239;-85
2021/09/01 00:59:26;;;;;;;6.65;3.20;;;17.50;99.90;;;;;;5014730;28;20169;-85
2021/09/01 01:01:53;;;;;;;12.25;4.03;;;17.50;99.90;;;;;;5015928;28;20247;-83
2021/09/01 01:04:20;;;;;;;7.90;2.90;;;17.60;99.90;;;;;;5015479;28;20185;-82
2021/09/01 01:06:46;;;;;;;5.90;2.45;;;17.50;99.90;;;;;;5014421;28;20164;-84
2021/09/01 01:09:11;;;;;;;6.55;2.90;;;17.40;99.90;;;;;;5014613;28;20270;-82
2021/09/01 01:11:38;;;;;;;5.60;2.70;;;17.40;99.90;;;;;;5013729;28;20176;-82
2021/09/01 01:14:04;;;;;;;8.00;2.97;;;17.50;99.90;;;;;;5015281;28;20168;-84
2021/09/01 01:16:30;;;;;;;8.55;2.78;;;17.70;99.90;;;;;;5016065;28;20220;-85
2021/09/01 01:18:59;;;;;;;9.43;3.22;;;17.80;99.90;;;;;;5016216;28;20187;-85
2021/09/01 01:21:27;;;;;;;12.38;2.97;;;17.80;99.90;;;;;;5014907;28;20180;-86
2021/09/01 01:23:57;;;;;;;10.88;2.80;;;17.90;99.90;;;;;;5016102;28;20157;-86
2021/09/01 01:26:23;;;;;;;9.15;2.90;;;17.70;99.90;;;;;;5016232;28;20169;-86
2021/09/01 01:28:54;;;;;;;8.27;2.45;;;17.70;99.90;;;;;;5014526;28;20475;-85
2021/09/01 01:31:21;;;;;;;10.18;3.10;;;17.80;99.90;;;;;;5015631;28;20191;-85
2021/09/01 01:33:48;;;;;;;8.55;2.78;;;17.80;99.90;;;;;;5015728;28;20543;-82
2021/09/01 01:36:13;;;;;;;10.85;2.78;;;17.90;99.90;;;;;;5014636;28;20204;-85
2021/09/01 01:38:39;;;;;;;7.40;2.40;;;17.90;99.90;;;;;;5016965;28;20197;-86
2021/09/01 01:41:05;;;;;;;6.45;3.10;;;17.80;99.90;;;;;;5015368;28;20176;-86
2021/09/01 01:43:35;;;;;;;6.28;3.00;;;17.80;99.90;;;;;;5016204;28;20177;-86
2021/09/01 01:46:00;;;;;;;6.75;2.20;;;17.60;99.90;;;;;;5014829;28;20160;-86
2021/09/01 01:48:26;;;;;;;5.90;2.75;;;17.40;99.90;;;;;;5015381;28;20215;-84
2021/09/01 01:50:52;;;;;;;9.68;2.95;;;17.40;99.90;;;;;;5014977;28;20165;-83
2021/09/01 01:53:17;;;;;;;7.32;2.67;;;17.30;99.90;;;;;;5014151;28;20530;-84
2021/09/01 01:55:43;;;;;;;5.53;2.72;;;17.30;99.90;;;;;;5014829;28;20600;-83
2021/09/01 01:58:08;;;;;;;6.43;2.70;;;17.40;99.90;;;;;;5014603;28;20192;-87
2021/09/01 02:00:34;;;;;;;12.23;2.97;;;17.50;99.90;;;;;;5014808;28;20244;-86
2021/09/01 02:03:00;;;;;;;13.00;2.80;;;17.60;99.90;;;;;;5014681;28;20172;-85
2021/09/01 02:05:26;;;;;;;10.13;3.03;;;17.60;99.90;;;;;;5014925;28;20185;-86
2021/09/01 02:07:52;;;;;;;8.63;2.72;;;17.60;99.90;;;;;;5014583;28;20227;-87
2021/09/01 02:10:18;;;;;;;6.57;2.92;;;17.50;99.90;;;;;;5014175;28;20168;-87
2021/09/01 02:12:44;;;;;;;4.70;3.10;;;17.60;99.90;;;;;;5013068;28;20176;-86
2021/09/01 02:15:11;;;;;;;5.18;2.35;;;17.60;99.90;;;;;;5014393;28;20168;-84
2021/09/01 02:17:38;;;;;;;10.57;4.22;;;17.80;99.90;;;;;;5014418;28;20192;-86
2021/09/01 02:20:05;;;;;;;12.13;3.28;;;18.00;99.90;;;;;;5013274;28;20525;-87
2021/09/01 02:22:31;;;;;;;12.77;2.67;;;18.00;99.90;;;;;;5014582;28;20621;-86
2021/09/01 02:24:57;;;;;;;7.93;2.67;;;18.10;99.90;;;;;;5014712;28;20160;-84
2021/09/01 02:27:22;;;;;;;15.70;2.53;;;18.00;99.90;;;;;;5015103;28;20259;-86
2021/09/01 02:29:48;;;;;;;14.32;3.20;;;18.10;99.90;;;;;;5013430;28;20234;-86
2021/09/01 02:32:16;;;;;;;8.50;2.63;;;18.10;99.90;;;;;;5013762;28;20637;-86
2021/09/01 02:34:41;;;;;;;12.77;2.65;;;18.20;99.90;;;;;;5015099;28;20169;-85
2021/09/01 02:37:07;;;;;;;7.82;3.00;;;18.10;99.90;;;;;;5014783;28;20219;-86
2021/09/01 02:39:33;;;;;;;13.27;2.70;;;17.90;99.90;;;;;;5014216;28;20184;-86
2021/09/01 02:41:58;;;;;;;5.38;2.65;;;17.80;99.90;;;;;;5015285;28;20180;-86
2021/09/01 02:44:24;;;;;;;10.25;2.47;;;17.90;99.90;;;;;;5020140;28;20165;-86
2021/09/01 02:46:50;;;;;;;8.02;3.15;;;17.80;99.90;;;;;;5018853;28;20306;-85
2021/09/01 02:49:15;;;;;;;8.27;2.47;;;17.80;99.90;;;;;;5019144;28;20204;-86
2021/09/01 02:51:41;;;;;;;7.70;2.67;;;17.90;99.90;;;;;;5017564;28;20219;-85
2021/09/01 02:54:07;;;;;;;9.70;3.38;;;18.00;99.90;;;;;;5020643;28;20164;-83
2021/09/01 02:56:32;;;;;;;10.98;3.05;;;18.20;99.90;;;;;;5019756;28;20212;-85
2021/09/01 02:58:58;;;;;;;17.52;2.90;;;18.20;99.90;;;;;;5015861;28;20255;-84
2021/09/01 03:01:24;;;;;;;15.70;3.58;;;18.10;99.90;;;;;;5017323;28;20168;-82
2021/09/01 03:03:49;;;;;;;13.20;3.00;;;18.20;99.90;;;;;;5019582;28;20172;-82
2021/09/01 03:06:15;;;;;;;6.82;2.58;;;18.00;99.90;;;;;;5023749;28;20184;-83
2021/09/01 03:08:41;;;;;;;9.02;2.80;;;18.00;99.90;;;;;;5014014;28;20192;-84
2021/09/01 03:11:07;;;;;;;8.95;2.75;;;18.10;99.90;;;;;;5014764;28;20648;-86
2021/09/01 03:13:33;;;;;;;6.15;2.58;;;18.10;99.90;;;;;;5012191;28;20164;-83
2021/09/01 03:15:59;;;;;;;7.55;3.15;;;18.20;99.90;;;;;;5014705;28;20208;-83
2021/09/01 03:18:24;;;;;;;8.68;3.08;;;18.20;99.90;;;;;;5012028;28;20569;-87
2021/09/01 03:20:50;;;;;;;15.10;3.50;;;18.20;99.90;;;;;;5012259;28;20502;-83
2021/09/01 03:23:16;;;;;;;8.27;2.72;;;18.20;99.90;;;;;;5013517;28;20161;-86
2021/09/01 03:25:42;;;;;;;13.27;3.72;;;18.00;99.90;;;;;;5013566;28;20164;-86
2021/09/01 03:28:08;;;;;;;7.32;2.85;;;18.00;99.90;;;;;;5012523;28;20257;-88
2021/09/01 03:30:33;;;;;;;14.32;3.15;;;17.90;99.90;;;;;;5013907;28;20160;-86
2021/09/01 03:33:00;;;;;;;12.35;2.90;;;17.90;99.90;;;;;;5012001;28;20183;-84
2021/09/01 03:35:25;;;;;;;13.25;3.20;;;17.90;99.90;;;;;;5012334;28;20204;-83
2021/09/01 03:37:51;;;;;;;11.20;2.70;;;18.00;99.90;;;;;;5013150;28;20283;-86
2021/09/01 03:40:17;;;;;;;12.23;2.92;;;18.10;99.90;;;;;;5012759;28;20226;-86
2021/09/01 03:42:43;;;;;;;8.68;2.30;;;18.10;99.90;;;;;;5013918;28;20179;-87
2021/09/01 03:45:09;;;;;;;8.70;3.13;;;17.90;99.90;;;;;;5012764;28;20165;-86
2021/09/01 03:47:35;;;;;;;8.57;2.92;;;17.90;99.90;;;;;;5012677;28;20610;-87
2021/09/01 03:50:02;;;;;;;8.90;2.75;;;17.90;99.90;;;;;;5012478;28;20176;-87
2021/09/01 03:52:28;;;;;;;7.10;2.70;;;17.90;99.90;;;;;;5013891;28;20621;-86
2021/09/01 03:54:53;;;;;;;10.75;2.85;;;18.10;99.90;;;;;;5013944;28;20252;-88
2021/09/01 03:57:19;;;;;;;12.35;3.55;;;18.20;99.90;;;;;;5012342;28;20212;-84
2021/09/01 03:59:44;;;;;;;10.60;2.88;;;18.00;99.90;;;;;;5012761;28;20624;-85
2021/09/01 04:02:10;;;;;;;12.10;3.30;;;17.90;99.90;;;;;;5013700;28;20175;-85
2021/09/01 04:04:36;;;;;;;14.65;3.40;;;17.90;99.90;;;;;;5013194;28;20185;-86
2021/09/01 04:07:06;;;;;;;7.85;3.05;;;18.10;99.90;;;;;;5012476;28;20184;-86
2021/09/01 04:09:32;;;;;;;9.07;2.78;;;18.20;99.90;;;;;;5015278;28;20169;-87
2021/09/01 04:11:58;;;;;;;13.80;3.92;;;18.10;99.90;;;;;;5016416;28;20280;-86
2021/09/01 04:14:23;;;;;;;15.23;2.95;;;18.00;99.90;;;;;;5017315;28;20256;-85
2021/09/01 04:16:49;;;;;;;7.43;2.90;;;18.20;99.90;;;;;;5015991;28;20259;-86
2021/09/01 04:19:15;;;;;;;9.15;3.00;;;18.40;99.90;;;;;;5017712;28;20172;-86
2021/09/01 04:21:41;;;;;;;10.02;3.45;;;18.10;99.90;;;;;;5016374;28;20218;-85
2021/09/01 04:24:06;;;;;;;8.40;2.53;;;18.20;99.90;;;;;;5016130;28;20195;-86
2021/09/01 04:26:32;;;;;;;6.53;2.42;;;18.20;99.90;;;;;;5017119;28;20173;-86
2021/09/01 04:28:58;;;;;;;8.95;2.50;;;18.20;99.90;;;;;;5015893;28;20604;-87
2021/09/01 04:31:23;;;;;;;10.57;3.63;;;18.10;99.90;;;;;;5017248;28;20251;-87
2021/09/01 04:33:49;;;;;;;8.50;2.67;;;18.10;99.90;;;;;;5017224;28;21203;-86
2021/09/01 04:36:15;;;;;;;17.20;3.75;;;18.00;99.90;;;;;;5016809;28;20204;-86
2021/09/01 04:38:41;;;;;;;11.23;3.30;;;17.90;99.90;;;;;;5015725;28;20189;-87
2021/09/01 04:41:06;;;;;;;7.25;3.28;;;18.00;99.90;;;;;;5017206;28;20183;-87
2021/09/01 04:43:32;;;;;;;8.63;3.10;;;17.80;99.90;;;;;;5017027;28;20634;-87
2021/09/01 04:45:58;;;;;;;10.82;4.03;;;17.60;99.90;;;;;;5015799;28;20182;-85
2021/09/01 04:48:24;;;;;;;17.38;3.58;;;17.60;99.90;;;;;;5015881;28;20211;-87
2021/09/01 04:50:51;;;;;;;11.05;3.05;;;17.80;99.90;;;;;;5017254;28;20172;-87
2021/09/01 04:53:17;;;;;;;5.35;2.88;;;17.70;99.90;;;;;;5017379;28;20167;-87
2021/09/01 04:55:43;;;;;;;15.73;3.67;;;17.70;99.90;;;;;;5015949;28;20242;-87
2021/09/01 04:58:09;;;;;;;14.40;3.38;;;17.60;99.90;;;;;;5017454;28;20200;-86
2021/09/01 05:00:35;;;;;;;9.07;3.00;;;17.50;99.90;;;;;;5017619;28;20161;-87
2021/09/01 05:03:01;;;;;;;10.38;3.30;;;17.50;99.90;;;;;;5016490;28;20536;-87
2021/09/01 05:05:26;;;;;;;10.65;2.72;;;17.60;99.90;;;;;;5017780;28;20188;-86
2021/09/01 05:07:53;;;;;;;9.55;3.72;;;17.70;99.90;;;;;;5015764;28;20216;-86
2021/09/01 05:10:18;;;;;;;8.43;2.97;;;17.70;99.90;;;;;;5015294;28;20172;-87
2021/09/01 05:12:48;;;;;;;11.32;2.60;;;17.70;99.90;;;;;;5015295;28;20168;-86
2021/09/01 05:15:14;;;;;;;10.43;3.58;;;17.60;99.90;;;;;;5016238;28;20164;-86
2021/09/01 05:17:40;;;;;;;9.80;3.28;;;17.60;99.90;;;;;;5015016;28;20192;-86
2021/09/01 05:20:06;;;;;;;14.13;4.07;;;17.60;99.90;;;;;;5014993;28;20635;-86
2021/09/01 05:22:34;;;;;;;10.52;2.97;;;17.60;99.90;;;;;;5014103;28;20263;-86
2021/09/01 05:25:03;;;;;;;9.75;3.05;;;17.40;99.90;;;;;;5014847;28;20192;-86
2021/09/01 05:27:32;;;;;;;12.68;3.55;;;17.40;99.90;;;;;;5014550;28;20204;-86
2021/09/01 05:29:59;;;;;;;12.07;3.45;;;17.50;99.90;;;;;;5016085;28;20254;-86
2021/09/01 05:32:28;;;;;;;7.28;2.60;;;17.50;99.90;;;;;;5015832;28;20694;-86
2021/09/01 05:34:56;;;;;;;8.25;3.22;;;17.50;99.90;;;;;;5014710;28;20172;-87
2021/09/01 05:37:23;;;;;;;9.63;3.17;;;17.40;99.90;;;;;;5015425;28;20214;-87
2021/09/01 05:39:51;;;;;;;8.77;3.08;;;17.60;99.90;;;;;;5014662;28;20617;-87
2021/09/01 05:42:22;;;;;;;16.42;3.83;;;17.40;99.90;;;;;;5014318;28;20176;-87
2021/09/01 05:44:48;;;;;;;5.53;3.42;;;17.30;99.90;;;;;;5015509;28;20171;-87
2021/09/01 05:47:16;;;;;;;16.80;2.92;;;17.60;99.90;;;;;;5014445;28;20189;-87
2021/09/01 05:49:44;;;;;;;10.35;2.70;;;17.70;99.90;;;;;;5015658;28;20248;-87
2021/09/01 05:52:10;;;;;;;9.68;3.63;;;17.80;99.90;;;;;;5015345;28;20226;-87
2021/09/01 05:54:42;;;;;;;8.13;3.97;;;17.90;99.90;;;;;;5015584;28;20172;-87
2021/09/01 05:57:12;;;;;;;17.05;3.80;;;17.90;99.90;;;;;;5014964;28;20214;-85
2021/09/01 06:00:06;;;;;;;14.98;3.38;;;18.00;99.90;;;;;;5013897;28;20168;-87
2021/09/01 06:02:39;;;;;;;15.65;4.78;;;18.00;99.90;;;;;;5015275;28;20168;-87
2021/09/01 06:05:07;;;;;;;9.32;3.08;;;18.00;99.90;;;;;;5015079;28;20493;-84
2021/09/01 06:07:33;;;;;;;13.35;3.40;;;18.20;99.90;;;;;;5014412;28;20193;-86
2021/09/01 06:10:00;;;;;;;13.65;3.72;;;18.20;99.90;;;;;;5013385;28;20172;-86
2021/09/01 06:12:27;;;;;;;7.88;3.03;;;18.30;99.90;;;;;;5014304;28;20168;-88
2021/09/01 06:14:54;;;;;;;8.00;2.53;;;18.40;99.90;;;;;;5013944;28;20168;-87
2021/09/01 06:17:20;;;;;;;11.07;3.47;;;18.30;99.90;;;;;;5013724;28;20575;-87
2021/09/01 06:19:46;;;;;;;11.85;3.47;;;18.30;99.90;;;;;;5013609;28;20184;-87
2021/09/01 06:22:13;;;;;;;11.32;3.35;;;18.00;99.90;;;;;;5014815;28;20177;-86
2021/09/01 06:24:39;;;;;;;14.23;3.08;;;18.10;99.90;;;;;;5012651;28;20161;-85
2021/09/01 06:27:05;;;;;;;7.13;3.05;;;18.00;99.90;;;;;;5013445;28;20211;-85
2021/09/01 06:29:31;;;;;;;8.52;2.70;;;18.10;99.90;;;;;;5013688;28;20628;-84
2021/09/01 06:31:57;;;;;;;8.00;3.33;;;18.00;99.90;;;;;;5012944;28;20198;-84
2021/09/01 06:34:22;;;;;;;12.40;3.78;;;18.10;99.90;;;;;;5012319;28;20215;-85
2021/09/01 06:36:48;;;;;;;8.18;3.00;;;17.90;99.90;;;;;;5013403;28;20215;-83
2021/09/01 06:39:14;;;;;;;5.10;2.88;;;17.90;99.90;;;;;;5013499;28;20171;-85
2021/09/01 06:41:40;;;;;;;8.43;3.63;;;18.00;99.90;;;;;;5012438;28;20180;-84
2021/09/01 06:44:06;;;;;;;10.93;2.88;;;18.20;99.90;;;;;;5011526;28;20647;-85
2021/09/01 06:46:32;;;;;;;7.50;2.72;;;18.40;99.90;;;;;;5012463;28;20646;-86
2021/09/01 06:48:57;;;;;;;11.63;3.67;;;18.50;99.90;;;;;;5013736;28;20247;-85
2021/09/01 06:51:23;;;;;;;12.38;3.25;;;18.60;99.90;;;;;;5011773;28;20195;-85
2021/09/01 06:53:49;;;;;;;9.23;3.20;;;18.70;99.90;;;;;;5011859;28;20315;-84
2021/09/01 06:56:14;;;;;;;8.32;2.67;;;18.50;99.90;;;;;;5012817;28;20246;-83
2021/09/01 06:58:40;;;;;;;7.03;3.45;;;18.60;99.90;;;;;;5012725;28;20672;-86
2021/09/01 07:01:07;;;;;;;141.10;10.07;;;18.60;99.90;;;;;;5011738;28;20177;-83
2021/09/01 07:03:32;;;;;;;7.95;2.72;;;18.80;99.90;;;;;;5012849;28;20833;-85
2021/09/01 07:05:58;;;;;;;14.82;3.35;;;18.80;99.90;;;;;;5011511;28;20188;-83
2021/09/01 07:08:23;;;;;;;24.05;4.55;;;18.80;99.90;;;;;;5012334;28;20200;-89
2021/09/01 07:10:51;;;;;;;14.93;3.40;;;18.80;99.90;;;;;;5011847;28;20218;-85
2021/09/01 07:13:17;;;;;;;9.40;3.95;;;18.90;99.90;;;;;;5011414;28;20181;-82
2021/09/01 07:15:44;;;;;;;20.35;4.22;;;19.20;99.90;;;;;;5012676;28;20250;-83
2021/09/01 07:18:10;;;;;;;15.02;4.07;;;19.00;99.90;;;;;;5011180;28;20556;-86
2021/09/01 07:20:38;;;;;;;10.65;3.40;;;19.00;99.90;;;;;;5012044;28;20161;-86
2021/09/01 07:23:04;;;;;;;13.48;3.30;;;19.10;99.90;;;;;;5012710;28;20529;-84
2021/09/01 07:25:32;;;;;;;19.38;4.07;;;19.10;99.90;;;;;;5011294;28;20196;-84
2021/09/01 07:27:57;;;;;;;11.45;3.67;;;19.20;99.90;;;;;;5010986;28;20204;-84
2021/09/01 07:30:23;;;;;;;20.20;3.88;;;19.00;99.90;;;;;;5012792;28;20244;-84
2021/09/01 07:32:49;;;;;;;9.23;3.95;;;18.90;99.90;;;;;;5010659;28;20176;-82
2021/09/01 07:35:14;;;;;;;14.50;3.50;;;19.10;99.90;;;;;;5012609;28;20169;-84
2021/09/01 07:37:45;;;;;;;6.75;3.55;;;19.10;99.90;;;;;;5012839;28;20188;-83
2021/09/01 07:40:12;;;;;;;11.68;3.53;;;19.00;99.90;;;;;;5027940;28;20703;-85
2021/09/01 07:42:38;;;;;;;10.60;3.28;;;18.70;99.90;;;;;;5013307;28;20220;-86
2021/09/01 07:45:04;;;;;;;6.95;3.40;;;18.70;99.90;;;;;;5016319;28;20165;-84
2021/09/01 07:47:30;;;;;;;10.55;3.88;;;18.80;99.90;;;;;;5016576;28;20188;-85
2021/09/01 07:49:56;;;;;;;8.32;3.58;;;19.00;99.90;;;;;;5017242;28;20176;-85
2021/09/01 07:52:21;;;;;;;7.50;3.17;;;19.00;99.90;;;;;;5016417;28;20168;-83
2021/09/01 07:54:47;;;;;;;12.50;3.55;;;19.10;99.90;;;;;;5016814;28;20176;-83
2021/09/01 07:57:13;;;;;;;5.22;2.80;;;19.00;99.90;;;;;;5015559;28;20699;-85
2021/09/01 07:59:38;;;;;;;12.07;3.35;;;19.00;99.90;;;;;;5020280;28;20195;-85
2021/09/01 08:02:04;;;;;;;13.00;3.55;;;18.90;99.90;;;;;;5017684;28;20203;-88
2021/09/01 08:04:29;;;;;;;12.25;3.03;;;18.60;99.90;;;;;;5017724;28;20183;-88
2021/09/01 08:06:55;;;;;;;9.88;3.10;;;18.80;99.90;;;;;;5017917;28;20169;-88
2021/09/01 08:09:21;;;;;;;8.07;2.92;;;18.70;99.90;;;;;;5017756;28;20164;-85
2021/09/01 08:11:46;;;;;;;11.52;3.30;;;18.60;99.90;;;;;;5017372;28;20188;-85
2021/09/01 08:14:12;;;;;;;16.33;3.08;;;18.90;99.90;;;;;;5032611;28;20189;-85
2021/09/01 08:16:38;;;;;;;7.85;2.70;;;18.70;99.90;;;;;;5015876;28;20196;-85
2021/09/01 08:19:03;;;;;;;11.63;4.30;;;18.80;99.90;;;;;;5016986;28;20632;-90
2021/09/01 08:21:29;;;;;;;11.25;3.47;;;18.90;99.90;;;;;;5016110;28;20177;-83
2021/09/01 08:23:55;;;;;;;4.57;2.50;;;19.00;99.90;;;;;;5014931;28;20180;-84
2021/09/01 08:26:20;;;;;;;6.10;3.45;;;19.20;99.90;;;;;;5014607;28;20169;-84
2021/09/01 08:28:46;;;;;;;11.35;3.50;;;19.10;99.90;;;;;;5014078;28;20569;-82
2021/09/01 08:31:12;;;;;;;6.75;2.97;;;19.00;99.90;;;;;;5014510;28;20180;-84
2021/09/01 08:33:38;;;;;;;9.65;3.40;;;19.00;99.90;;;;;;5015322;28;20211;-89
2021/09/01 08:36:05;;;;;;;16.95;3.20;;;18.90;99.90;;;;;;5014805;28;20200;-82
2021/09/01 08:38:31;;;;;;;7.95;2.78;;;19.10;99.90;;;;;;5030413;28;20199;-86
2021/09/01 08:40:56;;;;;;;23.00;3.88;;;19.50;99.90;;;;;;5015245;28;20168;-82
2021/09/01 08:43:22;;;;;;;9.95;3.35;;;20.00;99.90;;;;;;5015960;28;20226;-86
2021/09/01 08:45:48;;;;;;;11.27;4.07;;;20.30;99.90;;;;;;5016729;28;20180;-84
2021/09/01 08:48:15;;;;;;;12.10;3.67;;;20.60;99.90;;;;;;5016285;28;20183;-85
2021/09/01 08:50:41;;;;;;;9.05;3.05;;;20.80;99.90;;;;;;5015120;28;20165;-84
2021/09/01 08:53:07;;;;;;;4.68;2.92;;;20.90;99.90;;;;;;5017334;28;20169;-84
2021/09/01 08:55:33;;;;;;;12.10;3.88;;;20.60;99.90;;;;;;5016032;28;20168;-82
2021/09/01 08:57:59;;;;;;;5.00;2.95;;;20.80;99.90;;;;;;5015068;28;20591;-82
2021/09/01 09:00:25;;;;;;;9.88;3.40;;;20.80;99.90;;;;;;5015498;28;20196;-82
2021/09/01 09:02:58;;;;;;;8.20;3.55;;;20.70;99.90;;;;;;5015787;28;20192;-86
2021/09/01 09:05:31;;;;;;;9.98;3.08;;;20.80;99.90;;;;;;5014739;28;20246;-87
2021/09/01 09:07:57;;;;;;;6.15;3.58;;;21.00;99.90;;;;;;5014182;28;20279;-85
2021/09/01 09:10:31;;;;;;;12.18;2.85;;;21.00;99.90;;;;;;5013890;28;20263;-84
2021/09/01 09:13:00;;;;;;;5.13;2.97;;;21.00;99.90;;;;;;5015389;28;20187;-84
2021/09/01 09:15:26;;;;;;;8.02;2.53;;;20.70;99.90;;;;;;5014670;28;20177;-82
2021/09/01 09:17:52;;;;;;;11.13;2.40;;;20.60;99.90;;;;;;5015925;28;20200;-81
2021/09/01 09:20:31;;;;;;;7.75;2.55;;;20.70;99.90;;;;;;5015298;28;20191;-82
2021/09/01 09:22:58;;;;;;;5.35;2.30;;;20.80;99.90;;;;;;5015238;28;20568;-81
2021/09/01 09:25:31;;;;;;;5.85;2.67;;;20.70;99.90;;;;;;5014456;28;20647;-83
2021/09/01 09:27:59;;;;;;;10.27;2.65;;;20.80;99.90;;;;;;5015450;28;20196;-85
2021/09/01 09:30:39;;;;;;;3.47;2.38;;;20.60;99.90;;;;;;5015011;28;20211;-82
2021/09/01 09:33:13;;;;;;;6.80;3.08;;;20.00;99.90;;;;;;5013454;28;20214;-82
2021/09/01 09:36:03;;;;;;;6.78;2.13;;;19.90;99.90;;;;;;5014515;28;20199;-81
2021/09/01 09:38:43;;;;;;;9.93;2.85;;;19.90;99.90;;;;;;5014469;28;20219;-82
2021/09/01 09:41:23;;;;;;;10.27;3.60;;;20.30;99.90;;;;;;5012980;28;20195;-82
2021/09/01 09:43:51;;;;;;;5.38;3.00;;;19.90;99.90;;;;;;5013039;28;20307;-81
2021/09/01 09:46:18;;;;;;;4.22;2.65;;;19.90;99.90;;;;;;5012705;28;20172;-81
2021/09/01 09:48:46;;;;;;;6.78;3.05;;;19.90;99.90;;;;;;5012481;28;20652;-80
2021/09/01 09:51:18;;;;;;;6.82;2.83;;;20.10;99.90;;;;;;5012403;28;20255;-81
2021/09/01 09:53:49;;;;;;;10.93;3.13;;;20.30;99.90;;;;;;5012354;28;20172;-82
2021/09/01 09:56:20;;;;;;;8.60;2.92;;;20.30;99.90;;;;;;5013809;28;20207;-82
2021/09/01 09:58:48;;;;;;;9.70;2.55;;;20.30;99.90;;;;;;5012399;28;20192;-80
2021/09/01 10:01:16;;;;;;;4.40;2.97;;;20.40;99.90;;;;;;5013607;28;20199;-82
2021/09/01 10:03:41;;;;;;;6.65;2.92;;;20.30;99.90;;;;;;5013704;28;20176;-81
2021/09/01 10:06:09;;;;;;;18.83;3.70;;;20.60;99.90;;;;;;5012551;28;20195;-81
2021/09/01 10:08:37;;;;;;;15.35;3.40;;;20.60;99.90;;;;;;5028923;28;20197;-82
2021/09/01 10:11:12;;;;;;;6.97;2.72;;;20.80;99.90;;;;;;5012385;28;20195;-82
2021/09/01 10:13:40;;;;;;;8.27;3.35;;;20.60;99.90;;;;;;5013469;28;20160;-81
2021/09/01 10:16:36;;;;;;;6.00;2.80;;;20.40;99.90;;;;;;5013461;28;20207;-81
2021/09/01 10:19:16;;;;;;;9.57;3.50;;;20.50;99.90;;;;;;5003649;28;20728;-82
2021/09/01 10:21:46;;;;;;;6.97;3.03;;;20.00;99.90;;;;;;5012135;28;20172;-83
2021/09/01 10:24:22;;;;;;;9.98;3.40;;;19.90;99.90;;;;;;5013330;28;20168;-82
2021/09/01 10:27:07;;;;;;;6.40;2.97;;;20.30;99.90;;;;;;5011056;28;20577;-84
2021/09/01 10:29:55;;;;;;;8.68;3.28;;;20.50;99.90;;;;;;5012596;28;20160;-83
2021/09/01 10:32:25;;;;;;;6.60;3.28;;;20.40;99.90;;;;;;5011733;28;20226;-82
2021/09/01 10:35:15;;;;;;;5.18;3.65;;;20.50;99.90;;;;;;5013355;28;20187;-82
2021/09/01 10:37:43;;;;;;;5.90;3.20;;;20.50;99.90;;;;;;5008817;28;20828;-83
2021/09/01 10:40:13;;;;;;;19.65;3.80;;;20.50;99.90;;;;;;5011289;28;20168;-82
2021/09/01 10:42:44;;;;;;;5.25;3.25;;;20.70;99.90;;;;;;5011382;28;20169;-83
2021/09/01 10:45:33;;;;;;;10.70;3.78;;;20.50;99.90;;;;;;5012879;28;20200;-81
2021/09/01 10:47:58;;;;;;;7.78;3.17;;;20.60;99.90;;;;;;5012795;28;20184;-83
2021/09/01 10:50:30;;;;;;;8.95;3.33;;;20.60;99.90;;;;;;5012864;28;20176;-81
2021/09/01 10:53:18;;;;;;;8.13;3.60;;;20.60;99.90;;;;;;5011694;28;20199;-81
2021/09/01 10:56:01;;;;;;;10.43;3.10;;;21.00;99.90;;;;;;5012028;28;20189;-82
2021/09/01 10:58:38;;;;;;;6.50;3.08;;;21.00;99.90;;;;;;5012786;28;20204;-82
2021/09/01 11:01:08;;;;;;;5.20;2.90;;;20.90;99.90;;;;;;5013296;28;20168;-81
2021/09/01 11:03:37;;;;;;;8.95;2.97;;;21.20;99.90;;;;;;5011723;28;20213;-81
2021/09/01 11:06:14;;;;;;;6.05;2.85;;;21.50;99.90;;;;;;5013230;28;20267;-80
2021/09/01 11:09:04;;;;;;;5.18;2.75;;;21.50;99.90;;;;;;5032698;22;20242;-79
2021/09/01 11:11:46;;;;;;;12.15;3.55;;;21.70;99.90;;;;;;5018798;28;20200;-80
2021/09/01 11:14:29;;;;;;;10.05;3.28;;;21.80;99.90;;;;;;5018440;28;20172;-79
2021/09/01 11:16:57;;;;;;;5.25;2.85;;;21.70;99.90;;;;;;5019677;28;20603;-80
2021/09/01 11:19:23;;;;;;;4.25;2.80;;;22.00;99.90;;;;;;5017435;28;20184;-78
2021/09/01 11:21:50;;;;;;;5.55;2.92;;;22.10;99.90;;;;;;5015164;28;20374;-77
2021/09/01 11:24:18;;;;;;;2.83;2.30;;;21.70;99.90;;;;;;5020419;28;20167;-78
2021/09/01 11:26:46;;;;;;;9.82;3.90;;;21.60;99.90;;;;;;5015644;28;20172;-78
2021/09/01 11:29:12;;;;;;;14.27;3.20;;;21.50;99.90;;;;;;5017236;28;20169;-79
2021/09/01 11:31:43;;;;;;;10.30;2.97;;;21.60;99.90;;;;;;5017895;28;20164;-79
2021/09/01 11:34:12;;;;;;;20.73;4.10;;;22.10;99.90;;;;;;5016788;28;20161;-79
2021/09/01 11:36:39;;;;;;;9.95;3.35;;;22.10;99.90;;;;;;5017637;28;20223;-79
2021/09/01 11:39:07;;;;;;;6.82;3.17;;;22.00;99.90;;;;;;5017454;28;20192;-79
2021/09/01 11:41:33;;;;;;;6.00;2.85;;;21.70;99.90;;;;;;5017250;28;20180;-79
2021/09/01 11:44:04;;;;;;;5.20;2.80;;;21.70;99.90;;;;;;5016425;28;20653;-79
2021/09/01 11:46:34;;;;;;;5.10;2.92;;;21.70;99.90;;;;;;5016295;28;20192;-79
2021/09/01 11:49:14;;;;;;;6.00;2.63;;;21.50;99.90;;;;;;5016384;28;20295;-78
2021/09/01 11:51:43;;;;;;;4.63;2.38;;;21.10;99.90;;;;;;5016670;28;20178;-78
2021/09/01 11:54:10;;;;;;;8.52;2.70;;;21.20;99.90;;;;;;5015926;28;20584;-79
2021/09/01 11:56:36;;;;;;;6.70;2.90;;;21.60;99.90;;;;;;5016332;28;20235;-78
2021/09/01 11:59:14;;;;;;;6.53;2.88;;;21.90;99.90;;;;;;5016281;28;20216;-80
2021/09/01 12:01:45;;;;;;;9.73;3.38;;;21.80;99.90;;;;;;5017410;28;20179;-79
2021/09/01 12:04:11;;;;;;;8.95;3.88;;;21.40;99.90;;;;;;5017148;28;20165;-82
2021/09/01 12:06:45;;;;;;;5.55;2.63;;;21.50;99.90;;;;;;5016580;28;20221;-79
2021/09/01 12:09:13;;;;;;;7.47;2.70;;;21.40;99.90;;;;;;5019090;28;20215;-79
2021/09/01 12:11:59;;;;;;;7.13;3.25;;;21.60;99.90;;;;;;5016484;28;20171;-79
2021/09/01 12:14:30;;;;;;;9.50;2.97;;;21.70;99.90;;;;;;5018429;28;20173;-78
2021/09/01 12:17:18;;;;;;;10.32;3.97;;;21.90;99.90;;;;;;5023631;28;20213;-78
2021/09/01 12:19:47;;;;;;;5.80;3.03;;;21.80;99.90;;;;;;5019406;28;20173;-79
2021/09/01 12:22:13;;;;;;;11.65;4.10;;;21.40;99.90;;;;;;5016114;28;20165;-84
2021/09/01 12:24:39;;;;;;;6.78;2.67;;;21.70;99.90;;;;;;5015751;28;20359;-81
2021/09/01 12:27:09;;;;;;;8.82;3.08;;;22.10;99.90;;;;;;5015266;28;20187;-79
2021/09/01 12:29:42;;;;;;;7.00;3.05;;;22.20;99.90;;;;;;5017214;28;20168;-79
2021/09/01 12:32:18;;;;;;;9.15;2.95;;;22.30;99.90;;;;;;5020091;28;20203;-80
2021/09/01 12:34:46;;;;;;;3.67;2.88;;;22.40;99.90;;;;;;5020417;28;20187;-78
2021/09/01 12:37:26;;;;;;;3.53;2.60;;;22.30;99.90;;;;;;5019111;28;20604;-78
2021/09/01 12:39:59;;;;;;;5.68;2.60;;;22.50;99.90;;;;;;5020339;28;20168;-78
2021/09/01 12:42:29;;;;;;;5.55;2.78;;;22.40;99.90;;;;;;5019908;28;20177;-78
2021/09/01 12:45:23;;;;;;;7.03;2.75;;;22.30;99.90;;;;;;5021494;28;20184;-79
2021/09/01 12:48:03;;;;;;;3.85;2.75;;;22.00;99.90;;;;;;5020177;28;20212;-79